Time;durP1;ratioP1;P1;durP2;ratioP2;P2;SDS_P1;SDS_P2;PMS_P1;PMS_P2;Temp;Humidity;BMP_temperature;BMP_pressure;BME280_temperature;BME280_humidity;BME280_pressure;Samples;Min_cycle;Max_cycle;Signal;HPM_P1;HPM_P2
2022/05/22 00:02:11;;;;;;;23.65;11.40;;;9.50;91.70;;;;;;4891884;29;20048;-75
2022/05/22 00:04:51;;;;;;;20.15;11.88;;;9.50;91.50;;;;;;4887123;29;20051;-79
2022/05/22 00:07:37;;;;;;;19.15;11.38;;;9.50;91.60;;;;;;4883103;29;20036;-79
2022/05/22 00:13:35;;;;;;;30.17;10.75;;;9.40;91.90;;;;;;4882238;29;20048;-79
2022/05/22 00:19:18;;;;;;;25.67;11.57;;;9.50;91.50;;;;;;4901213;29;20052;-80
2022/05/22 00:22:01;;;;;;;18.85;10.60;;;9.30;92.90;;;;;;4869352;29;20446;-79
2022/05/22 00:24:40;;;;;;;21.88;10.65;;;9.30;93.00;;;;;;4868996;29;20037;-79
2022/05/22 00:27:22;;;;;;;18.23;9.77;;;9.20;94.40;;;;;;4868599;29;20052;-80
2022/05/22 00:30:08;;;;;;;17.52;9.43;;;9.10;93.80;;;;;;4869367;29;20433;-78
2022/05/22 00:33:05;;;;;;;15.25;8.93;;;9.20;93.40;;;;;;4871241;29;20123;-75
2022/05/22 00:35:45;;;;;;;20.02;8.27;;;9.20;92.60;;;;;;4878509;29;20413;-75
2022/05/22 00:38:19;;;;;;;19.33;8.52;;;9.10;92.70;;;;;;4872141;29;20131;-80
2022/05/22 00:40:56;;;;;;;17.17;8.50;;;9.20;92.60;;;;;;4884049;29;20386;-78
2022/05/22 00:43:37;;;;;;;17.83;7.47;;;9.20;92.50;;;;;;4870272;29;20090;-80
2022/05/22 00:46:13;;;;;;;15.02;7.43;;;9.60;92.30;;;;;;4868949;29;20041;-78
2022/05/22 00:48:53;;;;;;;;;;;;;;;;;;;;;
2022/05/22 00:51:57;;;;;;;14.65;7.60;;;9.20;92.30;;;;;;4899092;29;20051;-79
2022/05/22 00:55:04;;;;;;;;;;;9.20;92.30;;;;;;4884266;29;20477;-79
2022/05/22 00:57:42;;;;;;;;;;;;;;;;;;;;;
2022/05/22 01:00:45;;;;;;;20.85;8.15;;;9.10;92.50;;;;;;4899274;29;20083;-78
2022/05/22 01:03:36;;;;;;;12.00;6.60;;;9.10;92.60;;;;;;4883631;29;20044;-79
2022/05/22 01:06:24;;;;;;;14.73;7.25;;;9.20;92.30;;;;;;4883583;29;20043;-79
2022/05/22 01:08:52;;;;;;;13.85;7.85;;;9.10;92.00;;;;;;4883381;29;20040;-78
2022/05/22 01:11:54;;;;;;;18.65;8.02;;;9.10;92.30;;;;;;4882637;29;20095;-77
2022/05/22 01:14:47;;;;;;;12.48;7.03;;;9.00;92.60;;;;;;4867631;29;20552;-80
2022/05/22 01:17:35;;;;;;;15.75;7.65;;;9.10;92.30;;;;;;4882204;29;20096;-78
2022/05/22 01:20:04;;;;;;;15.50;7.40;;;9.00;92.40;;;;;;4882828;29;20052;-79
2022/05/22 01:22:55;;;;;;;;;;;;;;;;;;;;;
2022/05/22 01:26:13;;;;;;;;;;;;;;;;;;;;;
2022/05/22 01:28:57;;;;;;;19.55;8.00;;;9.00;92.50;;;;;;4883060;29;20091;-79
2022/05/22 01:31:46;;;;;;;18.23;7.47;;;8.60;92.30;;;;;;4867949;29;20469;-78
2022/05/22 01:34:34;;;;;;;14.93;7.65;;;9.00;92.50;;;;;;4882323;29;20055;-80
2022/05/22 01:40:36;;;;;;;16.30;7.45;;;8.90;92.60;;;;;;4883340;29;20113;-78
2022/05/22 01:43:11;;;;;;;16.98;7.70;;;9.00;92.80;;;;;;4882627;29;20508;-78
2022/05/22 01:46:07;;;;;;;20.65;8.15;;;8.70;92.60;;;;;;4878435;29;20490;-79
2022/05/22 01:48:45;;;;;;;19.63;8.25;;;8.90;92.40;;;;;;4861265;29;20412;-80
2022/05/22 01:52:01;;;;;;;21.90;8.55;;;8.90;92.60;;;;;;4862283;29;20045;-79
2022/05/22 01:54:36;;;;;;;18.30;7.68;;;8.80;92.70;;;;;;4856264;29;20056;-79
2022/05/22 01:57:13;;;;;;;16.58;7.97;;;8.90;92.50;;;;;;4864193;29;20379;-79
2022/05/22 02:00:14;;;;;;;;;;;;;;;;;;;;;
2022/05/22 02:02:42;;;;;;;16.52;9.35;;;8.90;92.30;;;;;;4873202;29;20509;-75
2022/05/22 02:05:48;;;;;;;;;;;;;;;;;;;;;
2022/05/22 02:08:45;;;;;;;16.05;8.80;;;8.90;92.90;;;;;;4862963;29;20037;-79
2022/05/22 02:11:31;;;;;;;16.08;7.97;;;8.90;93.00;;;;;;4847987;29;20064;-79
2022/05/22 02:14:17;;;;;;;16.05;8.73;;;8.90;92.40;;;;;;4847627;29;20382;-78
2022/05/22 02:17:17;;;;;;;20.08;8.55;;;9.00;93.00;;;;;;4846662;29;20044;-79
2022/05/22 02:20:03;;;;;;;16.50;8.07;;;9.00;92.90;;;;;;4883658;29;20070;-78
2022/05/22 02:23:14;;;;;;;17.20;7.25;;;8.90;92.90;;;;;;4868026;29;20047;-78
2022/05/22 02:25:57;;;;;;;15.20;8.68;;;8.90;92.80;;;;;;4868256;29;20143;-78
2022/05/22 02:28:54;;;;;;;17.55;8.75;;;8.90;92.90;;;;;;4863688;29;20052;-79
2022/05/22 02:31:36;;;;;;;19.75;8.35;;;8.90;92.90;;;;;;4865843;29;20060;-78
2022/05/22 02:34:09;;;;;;;18.50;8.77;;;9.00;92.80;;;;;;4897976;29;20043;-80
2022/05/22 02:37:03;;;;;;;22.73;9.45;;;8.80;92.90;;;;;;4882382;29;20430;-79
2022/05/22 02:39:40;;;;;;;28.88;10.13;;;8.90;92.90;;;;;;4868137;29;20422;-77
2022/05/22 02:42:25;;;;;;;23.10;10.20;;;8.90;93.70;;;;;;4865850;29;20037;-80
2022/05/22 02:45:28;;;;;;;;;;;;;;;;;;;;;
2022/05/22 02:48:27;;;;;;;20.88;9.25;;;8.90;93.40;;;;;;4896585;29;20041;-79
2022/05/22 02:51:08;;;;;;;28.55;12.10;;;8.90;93.00;;;;;;4865064;29;20071;-78
2022/05/22 02:54:01;;;;;;;29.48;11.93;;;8.90;94.20;;;;;;4896212;29;20184;-78
2022/05/22 02:57:21;;;;;;;;;;;;;;;;;;;;;
2022/05/22 03:00:07;;;;;;;19.73;9.70;;;9.00;95.20;;;;;;4881273;29;20104;-78
2022/05/22 03:03:03;;;;;;;;;;;;;;;;;;;;;
2022/05/22 03:08:30;;;;;;;18.25;8.48;;;8.90;94.10;;;;;;4881636;29;20048;-78
2022/05/22 03:15:03;;;;;;;11.20;6.22;;;8.80;93.60;;;;;;4896871;29;20041;-78
2022/05/22 03:17:52;;;;;;;10.10;5.53;;;8.80;93.50;;;;;;4864960;29;20083;-78
2022/05/22 03:20:49;;;;;;;17.92;8.63;;;8.70;93.10;;;;;;4881267;29;20056;-80
2022/05/22 03:23:41;;;;;;;21.50;9.20;;;8.80;93.60;;;;;;4844637;29;20071;-79
2022/05/22 03:26:21;;;;;;;20.75;9.50;;;8.90;93.60;;;;;;4845979;29;20136;-75
2022/05/22 03:29:18;;;;;;;19.90;9.45;;;8.80;93.30;;;;;;4851776;29;20060;-76
2022/05/22 03:35:06;;;;;;;18.77;9.55;;;8.80;93.60;;;;;;4838261;29;20776;-79
2022/05/22 03:38:13;;;;;;;22.10;9.68;;;8.80;93.60;;;;;;4859286;29;20084;-79
2022/05/22 03:40:59;;;;;;;19.95;9.95;;;8.90;93.30;;;;;;4817389;29;20041;-79
2022/05/22 03:44:10;;;;;;;23.08;11.90;;;8.90;94.00;;;;;;4845563;29;20388;-78
2022/05/22 03:46:50;;;;;;;26.48;12.07;;;8.90;93.70;;;;;;4838555;29;20128;-79
2022/05/22 03:49:27;;;;;;;31.60;14.60;;;9.00;94.30;;;;;;4830005;29;20387;-79
2022/05/22 03:52:18;;;;;;;28.42;14.43;;;9.20;95.50;;;;;;4830997;29;20048;-80
2022/05/22 03:55:20;;;;;;;32.53;14.88;;;9.20;94.70;;;;;;4872129;29;20536;-78
2022/05/22 03:58:24;;;;;;;25.05;13.13;;;9.20;95.40;;;;;;4899100;29;20048;-78
2022/05/22 04:04:24;;;;;;;22.10;10.65;;;9.20;94.60;;;;;;4880249;29;20363;-78
2022/05/22 04:07:25;;;;;;;17.63;11.40;;;9.20;94.30;;;;;;4831613;29;20396;-78
2022/05/22 04:10:26;;;;;;;16.52;10.35;;;9.30;95.10;;;;;;4843380;29;20042;-79
2022/05/22 04:13:08;;;;;;;26.48;13.68;;;9.30;94.90;;;;;;4807001;29;20053;-78
2022/05/22 04:19:59;;;;;;;100.18;10.45;;;9.40;96.30;;;;;;4800973;29;20133;-79
2022/05/22 04:26:10;;;;;;;30.75;7.63;;;9.40;95.90;;;;;;4806774;29;20104;-78
2022/05/22 04:29:16;;;;;;;20.27;7.18;;;9.30;95.70;;;;;;4784261;29;20515;-79
2022/05/22 04:31:54;;;;;;;19.88;8.32;;;9.40;95.50;;;;;;4791137;29;20058;-78
2022/05/22 04:34:49;;;;;;;42.30;7.78;;;9.40;95.80;;;;;;4792997;29;20577;-79
2022/05/22 04:37:40;;;;;;;43.67;9.10;;;9.50;95.70;;;;;;4799039;29;20440;-79
2022/05/22 04:43:56;;;;;;;;;;;9.70;95.50;;;;;;4863767;29;20048;-78
2022/05/22 04:46:35;;;;;;;14.23;8.85;;;9.50;96.10;;;;;;4884300;29;20387;-78
2022/05/22 04:49:09;;;;;;;17.20;9.57;;;9.50;96.10;;;;;;4901223;29;20482;-78
2022/05/22 04:51:54;;;;;;;17.70;8.10;;;9.70;96.00;;;;;;4889546;29;20096;-75
2022/05/22 04:55:08;;;;;;;;;;;;;;;;;;;;;
2022/05/22 04:57:48;;;;;;;17.75;10.88;;;9.80;96.70;;;;;;4883122;29;20059;-78
2022/05/22 05:00:46;;;;;;;25.42;10.55;;;10.00;96.10;;;;;;4868342;29;20043;-78
2022/05/22 05:03:56;;;;;;;;;;;;;;;;;;;;;
2022/05/22 05:06:56;;;;;;;18.65;10.60;;;10.20;95.60;;;;;;4882323;29;20100;-78
2022/05/22 05:12:36;;;;;;;17.33;9.48;;;10.80;95.50;;;;;;4873360;29;20055;-78
2022/05/22 05:15:47;;;;;;;16.30;9.30;;;10.50;95.40;;;;;;4855169;29;20048;-78
2022/05/22 05:18:19;;;;;;;16.95;8.32;;;10.60;95.10;;;;;;4867414;29;20048;-80
2022/05/22 05:20:57;;;;;;;16.38;8.05;;;10.80;94.80;;;;;;4864577;29;20098;-79
2022/05/22 05:23:52;;;;;;;15.70;7.97;;;10.90;94.70;;;;;;4848198;29;20140;-78
2022/05/22 05:27:06;;;;;;;12.73;6.72;;;11.00;94.90;;;;;;4865772;29;20043;-78
2022/05/22 05:30:08;;;;;;;14.18;7.53;;;11.20;94.90;;;;;;4864485;29;20094;-79
2022/05/22 05:32:59;;;;;;;11.75;7.38;;;11.40;94.20;;;;;;4864640;29;20052;-80
2022/05/22 05:35:50;;;;;;;14.80;6.93;;;11.50;94.20;;;;;;4848270;29;20048;-78
2022/05/22 05:42:06;;;;;;;12.80;5.82;;;11.90;93.40;;;;;;4850260;29;20045;-79
2022/05/22 05:45:07;;;;;;;13.30;5.90;;;12.20;92.60;;;;;;4878212;29;20509;-79
2022/05/22 05:48:10;;;;;;;13.32;6.00;;;12.20;92.40;;;;;;4865824;29;20566;-78
2022/05/22 05:51:16;;;;;;;11.40;6.22;;;12.60;92.30;;;;;;4848297;29;20052;-78
2022/05/22 05:54:10;;;;;;;14.63;5.90;;;12.70;92.30;;;;;;4881157;29;20088;-78
2022/05/22 06:03:23;;;;;;;18.50;6.70;;;13.50;91.60;;;;;;4843240;29;20126;-79
2022/05/22 06:06:25;;;;;;;15.32;6.00;;;13.70;90.80;;;;;;4882069;29;20489;-79
2022/05/22 06:09:35;;;;;;;16.50;6.25;;;13.90;90.50;;;;;;4882041;29;20107;-79
2022/05/22 06:12:48;;;;;;;13.48;6.00;;;14.60;90.70;;;;;;4897803;29;20397;-79
2022/05/22 06:19:18;;;;;;;11.15;5.38;;;14.50;88.60;;;;;;4865951;29;20375;-78
2022/05/22 06:22:53;;;;;;;15.95;5.63;;;14.90;86.90;;;;;;4895560;29;20458;-76
2022/05/22 06:26:07;;;;;;;13.90;4.88;;;15.20;87.10;;;;;;4890020;29;20092;-76
2022/05/22 06:33:20;;;;;;;13.88;5.15;;;15.70;84.40;;;;;;4822219;29;20190;-78
2022/05/22 06:36:33;;;;;;;15.02;4.82;;;16.10;82.60;;;;;;4806281;29;20477;-78
2022/05/22 06:42:42;;;;;;;13.43;3.97;;;16.60;82.90;;;;;;4843491;29;20131;-79
2022/05/22 06:46:01;;;;;;;11.52;4.03;;;16.70;78.80;;;;;;4841525;29;20061;-78
2022/05/22 06:49:06;;;;;;;11.88;3.58;;;16.90;78.70;;;;;;4843808;29;20104;-79
2022/05/22 06:51:56;;;;;;;22.17;4.35;;;17.00;80.20;;;;;;4842054;29;20048;-78
2022/05/22 06:54:30;;;;;;;14.07;3.78;;;17.30;77.30;;;;;;4843732;29;20371;-78
2022/05/22 06:57:00;;;;;;;14.98;4.03;;;17.50;77.40;;;;;;4842567;29;20156;-79
2022/05/22 06:59:49;;;;;;;12.30;4.05;;;17.60;76.70;;;;;;4859276;29;20037;-79
2022/05/22 07:02:52;;;;;;;15.48;4.07;;;17.70;75.20;;;;;;4829214;29;20181;-77
2022/05/22 07:08:50;;;;;;;11.93;3.60;;;18.00;73.30;;;;;;4863668;29;20050;-79
2022/05/22 07:14:39;;;;;;;14.77;3.65;;;18.10;71.40;;;;;;4894052;29;20051;-76
2022/05/22 07:17:07;;;;;;;11.70;3.33;;;18.20;71.20;;;;;;4899741;29;20028;-76
2022/05/22 07:19:34;;;;;;;11.13;3.22;;;18.30;71.70;;;;;;4884952;29;20047;-76
2022/05/22 07:22:01;;;;;;;13.30;3.42;;;18.40;68.30;;;;;;4900539;29;20048;-77
2022/05/22 07:24:28;;;;;;;7.50;2.88;;;18.50;68.70;;;;;;4900496;29;20186;-77
2022/05/22 07:26:53;;;;;;;13.77;2.83;;;18.70;69.10;;;;;;4900446;29;20040;-77
2022/05/22 07:29:19;;;;;;;9.98;3.03;;;18.60;67.00;;;;;;4884430;29;20058;-79
2022/05/22 07:31:45;;;;;;;9.70;2.58;;;18.80;65.90;;;;;;4884434;29;20083;-76
2022/05/22 07:34:10;;;;;;;11.52;3.13;;;18.90;65.40;;;;;;4884547;29;20096;-75
2022/05/22 07:36:36;;;;;;;14.10;3.03;;;18.80;65.70;;;;;;4899910;29;20549;-75
2022/05/22 07:39:03;;;;;;;7.80;2.40;;;19.00;63.20;;;;;;4900379;29;20079;-79
2022/05/22 07:41:30;;;;;;;8.13;2.28;;;19.00;64.10;;;;;;4899880;29;20044;-77
2022/05/22 07:43:59;;;;;;;8.50;2.30;;;19.20;62.60;;;;;;4900197;29;20489;-83
2022/05/22 07:46:26;;;;;;;8.55;1.98;;;19.20;61.50;;;;;;4885999;29;20083;-75
2022/05/22 07:48:52;;;;;;;14.88;2.42;;;19.40;63.40;;;;;;4891344;29;20104;-80
2022/05/22 07:51:21;;;;;;;;;;;19.70;60.70;;;;;;4908033;29;20123;-75
2022/05/22 07:53:47;;;;;;;6.95;2.72;;;19.70;59.80;;;;;;4890511;29;19915;-78
2022/05/22 07:56:13;;;;;;;14.93;2.88;;;19.70;60.50;;;;;;4893592;29;20416;-81
2022/05/22 07:58:40;;;;;;;12.23;2.45;;;19.80;62.30;;;;;;4884726;29;20488;-78
2022/05/22 08:01:06;;;;;;;11.13;2.40;;;19.80;61.80;;;;;;4884176;29;20127;-79
2022/05/22 08:03:38;;;;;;;8.82;2.45;;;19.70;60.40;;;;;;4899479;29;20156;-83
2022/05/22 08:06:06;;;;;;;8.05;2.30;;;20.00;59.00;;;;;;4899420;29;20055;-73
2022/05/22 08:08:32;;;;;;;10.43;2.60;;;20.00;60.70;;;;;;4899504;29;20040;-70
2022/05/22 08:10:58;;;;;;;8.98;2.78;;;20.00;61.20;;;;;;4899402;29;20063;-69
2022/05/22 08:13:24;;;;;;;11.63;2.67;;;20.20;60.00;;;;;;4899601;29;20036;-70
2022/05/22 08:15:50;;;;;;;9.43;2.63;;;20.30;60.70;;;;;;4884595;29;20346;-70
2022/05/22 08:18:15;;;;;;;11.38;2.60;;;20.40;58.40;;;;;;4884077;29;20115;-71
2022/05/22 08:20:43;;;;;;;12.68;3.00;;;20.40;57.30;;;;;;4900058;29;20052;-70
2022/05/22 08:23:20;;;;;;;11.00;3.10;;;20.60;59.00;;;;;;4899788;29;20098;-69
2022/05/22 08:25:48;;;;;;;10.48;2.33;;;20.70;58.30;;;;;;4916706;29;20052;-70
2022/05/22 08:28:14;;;;;;;15.98;3.10;;;20.70;58.60;;;;;;4900330;29;20454;-69
2022/05/22 08:30:40;;;;;;;9.75;3.15;;;20.70;59.70;;;;;;4886352;29;20088;-68
2022/05/22 08:33:06;;;;;;;12.23;2.80;;;20.80;59.50;;;;;;4903157;29;20131;-68
2022/05/22 08:35:36;;;;;;;11.98;3.10;;;20.90;58.00;;;;;;4903504;29;20102;-68
2022/05/22 08:38:03;;;;;;;13.27;3.03;;;21.00;58.30;;;;;;4903541;29;20405;-70
2022/05/22 08:40:39;;;;;;;8.40;2.80;;;20.90;57.00;;;;;;4903113;29;20492;-69
2022/05/22 08:43:13;;;;;;;13.52;4.38;;;21.10;59.10;;;;;;4919668;29;20557;-69
2022/05/22 08:45:52;;;;;;;10.43;3.30;;;21.00;57.20;;;;;;4903237;29;20063;-69
2022/05/22 08:48:33;;;;;;;14.30;3.67;;;21.00;58.60;;;;;;4887727;29;20358;-69
2022/05/22 08:51:00;;;;;;;16.48;4.22;;;21.20;59.10;;;;;;4903070;29;20088;-70
2022/05/22 08:53:35;;;;;;;12.77;3.67;;;21.00;57.90;;;;;;4903036;29;20048;-68
2022/05/22 08:59:12;;;;;;;13.82;3.88;;;21.10;59.10;;;;;;4902706;29;20508;-69
2022/05/22 09:01:45;;;;;;;14.93;3.85;;;21.10;57.40;;;;;;4903003;29;20052;-70
2022/05/22 09:04:35;;;;;;;12.27;3.70;;;21.00;58.60;;;;;;4887294;29;20052;-69
2022/05/22 09:07:29;;;;;;;13.57;3.35;;;21.20;60.40;;;;;;4902911;29;20048;-70
2022/05/22 09:09:57;;;;;;;13.70;4.20;;;21.30;60.60;;;;;;4902567;29;20179;-69
2022/05/22 09:12:48;;;;;;;13.48;3.60;;;21.50;57.90;;;;;;4902730;29;20393;-70
2022/05/22 09:15:36;;;;;;;13.70;3.80;;;21.30;59.30;;;;;;4902742;29;20532;-68
2022/05/22 09:18:34;;;;;;;14.30;3.88;;;21.40;57.10;;;;;;4887092;29;20135;-68
2022/05/22 09:21:11;;;;;;;13.98;4.10;;;21.60;58.10;;;;;;4902819;29;20128;-70
2022/05/22 09:23:57;;;;;;;11.98;3.70;;;21.90;59.10;;;;;;4901989;29;20084;-68
2022/05/22 09:26:43;;;;;;;11.05;3.40;;;22.20;57.20;;;;;;4902369;29;20076;-70
2022/05/22 09:29:33;;;;;;;12.15;3.85;;;22.30;56.90;;;;;;4886249;29;20134;-69
2022/05/22 09:32:25;;;;;;;16.52;4.05;;;22.20;55.40;;;;;;4901952;29;20524;-69
2022/05/22 09:35:21;;;;;;;18.80;3.60;;;22.20;56.00;;;;;;4902423;29;20462;-70
2022/05/22 09:38:13;;;;;;;15.68;4.10;;;22.50;55.20;;;;;;4900039;29;20095;-71
2022/05/22 09:40:45;;;;;;;12.50;4.00;;;22.40;54.80;;;;;;4902034;29;20091;-69
2022/05/22 09:43:39;;;;;;;13.90;4.03;;;22.40;56.30;;;;;;4886534;29;20044;-70
2022/05/22 09:46:19;;;;;;;8.57;2.90;;;22.40;56.70;;;;;;4901825;29;20044;-67
2022/05/22 09:49:29;;;;;;;18.23;3.22;;;22.30;54.80;;;;;;4902161;29;20048;-69
2022/05/22 09:52:21;;;;;;;10.07;2.78;;;22.40;55.00;;;;;;4870656;29;20056;-70
2022/05/22 09:55:11;;;;;;;9.52;3.05;;;22.40;54.10;;;;;;4918726;29;20050;-69
2022/05/22 09:58:14;;;;;;;10.55;3.20;;;22.40;56.00;;;;;;4918721;29;20380;-69
2022/05/22 10:01:35;;;;;;;10.35;2.70;;;22.20;53.30;;;;;;4901463;29;20052;-69
2022/05/22 10:04:25;;;;;;;13.95;3.00;;;22.30;53.90;;;;;;4870188;29;20048;-68
2022/05/22 10:07:25;;;;;;;10.45;2.60;;;22.50;54.40;;;;;;4901752;29;20043;-68
2022/05/22 10:10:23;;;;;;;15.70;2.65;;;22.80;53.90;;;;;;4901335;29;20083;-70
2022/05/22 10:13:04;;;;;;;8.27;2.13;;;22.90;52.10;;;;;;4918212;29;20061;-70
2022/05/22 10:15:47;;;;;;;10.50;2.53;;;22.70;51.10;;;;;;4901669;29;20179;-70
2022/05/22 10:18:46;;;;;;;8.63;2.33;;;22.40;51.80;;;;;;4918206;29;20056;-70
2022/05/22 10:22:03;;;;;;;10.98;2.30;;;22.40;52.90;;;;;;4885853;29;20444;-69
2022/05/22 10:24:40;;;;;;;15.07;2.10;;;22.40;53.20;;;;;;4876058;29;20052;-69
2022/05/22 10:27:45;;;;;;;10.15;2.25;;;22.30;51.30;;;;;;4918158;29;20048;-70
2022/05/22 10:30:17;;;;;;;11.90;2.00;;;22.50;50.90;;;;;;4885135;29;20066;-71
2022/05/22 10:32:51;;;;;;;10.52;2.65;;;22.60;51.60;;;;;;4900985;29;20122;-70
2022/05/22 10:35:42;;;;;;;9.23;2.10;;;22.50;51.50;;;;;;4900918;29;20043;-71
2022/05/22 10:38:37;;;;;;;5.90;2.00;;;22.60;51.10;;;;;;4917830;29;20048;-69
2022/05/22 10:44:12;;;;;;;5.95;1.77;;;22.60;52.30;;;;;;4917656;29;20059;-70
2022/05/22 10:46:46;;;;;;;9.32;1.70;;;22.90;52.00;;;;;;4900937;29;20417;-69
2022/05/22 10:49:11;;;;;;;7.45;1.58;;;22.90;48.00;;;;;;4885420;29;20058;-70
2022/05/22 10:51:37;;;;;;;;;;;23.10;48.10;;;;;;4885114;29;20036;-70
2022/05/22 10:54:03;;;;;;;7.43;2.15;;;23.40;46.00;;;;;;4917377;29;19993;-70
2022/05/22 10:56:33;;;;;;;8.88;1.90;;;23.60;48.70;;;;;;4900985;29;20048;-69
2022/05/22 10:59:02;;;;;;;8.68;1.70;;;23.40;49.00;;;;;;4917489;29;20401;-70
2022/05/22 11:01:34;;;;;;;8.20;1.65;;;23.20;47.60;;;;;;4900837;29;20084;-69
2022/05/22 11:04:15;;;;;;;7.10;1.60;;;23.20;46.40;;;;;;4917404;29;20055;-70
2022/05/22 11:06:56;;;;;;;7.35;1.52;;;23.00;47.10;;;;;;4900814;29;20083;-69
2022/05/22 11:09:30;;;;;;;5.22;1.48;;;22.60;46.70;;;;;;4917368;29;20114;-69
2022/05/22 11:12:12;;;;;;;6.40;1.45;;;22.70;47.20;;;;;;4900424;29;20040;-69
2022/05/22 11:14:40;;;;;;;9.00;1.90;;;22.90;49.20;;;;;;4884837;29;20064;-70
2022/05/22 11:17:21;;;;;;;7.93;1.65;;;23.00;47.50;;;;;;4917083;29;20481;-69
2022/05/22 11:19:54;;;;;;;13.25;2.47;;;22.40;45.90;;;;;;4900678;29;20552;-70
2022/05/22 11:22:58;;;;;;;7.70;2.05;;;22.70;45.70;;;;;;4885026;29;20079;-70
2022/05/22 11:25:44;;;;;;;6.28;1.77;;;23.00;46.50;;;;;;4917071;29;20098;-72
2022/05/22 11:28:38;;;;;;;6.18;1.75;;;23.30;45.90;;;;;;4899903;29;20044;-68
2022/05/22 11:31:18;;;;;;;8.30;1.80;;;23.40;46.10;;;;;;4899947;29;20486;-73
2022/05/22 11:34:09;;;;;;;6.38;1.75;;;23.30;46.50;;;;;;4884816;29;20469;-72
2022/05/22 11:36:48;;;;;;;5.22;1.48;;;23.30;46.30;;;;;;4900209;29;20500;-72
2022/05/22 11:39:28;;;;;;;10.30;1.70;;;23.40;46.60;;;;;;4900188;29;20477;-72
2022/05/22 11:42:28;;;;;;;10.50;1.75;;;23.40;46.10;;;;;;4900194;29;20051;-80
2022/05/22 11:45:14;;;;;;;8.13;1.90;;;22.90;45.50;;;;;;4899715;29;20142;-74
2022/05/22 11:48:04;;;;;;;8.07;1.63;;;23.10;47.40;;;;;;4888350;29;20056;-74
2022/05/22 11:51:05;;;;;;;7.85;1.75;;;23.00;46.00;;;;;;4889797;29;20304;-73
2022/05/22 11:53:34;;;;;;;9.13;1.92;;;22.80;46.30;;;;;;4905547;29;20144;-73
2022/05/22 11:56:00;;;;;;;9.98;1.67;;;23.00;48.00;;;;;;4888202;29;20477;-74
2022/05/22 11:58:34;;;;;;;;;;;23.10;48.40;;;;;;4885316;29;20055;-78
2022/05/22 12:01:21;;;;;;;6.60;1.60;;;23.20;48.40;;;;;;4900261;29;19984;-76
2022/05/22 12:04:05;;;;;;;;;;;23.00;47.30;;;;;;4886588;29;20032;-76
2022/05/22 12:07:08;;;;;;;8.30;2.05;;;23.10;48.30;;;;;;4887626;29;19930;-76
2022/05/22 12:09:59;;;;;;;8.25;1.80;;;23.20;47.30;;;;;;4887876;29;20376;-75
2022/05/22 12:12:44;;;;;;;8.90;1.90;;;23.00;49.10;;;;;;4902922;29;20576;-75
2022/05/22 12:15:19;;;;;;;8.13;1.95;;;22.90;49.40;;;;;;4920549;29;20048;-75
2022/05/22 12:18:05;;;;;;;8.15;1.77;;;22.70;48.60;;;;;;4888059;29;20048;-76
2022/05/22 12:21:00;;;;;;;6.85;1.40;;;22.80;50.10;;;;;;4865654;29;20051;-75
2022/05/22 12:23:31;;;;;;;7.57;1.83;;;22.90;46.60;;;;;;4903650;29;20075;-76
2022/05/22 12:26:05;;;;;;;7.80;1.60;;;22.90;48.70;;;;;;4903326;29;20032;-75
2022/05/22 12:28:53;;;;;;;11.10;1.88;;;22.90;48.60;;;;;;4903526;29;20188;-74
2022/05/22 12:31:30;;;;;;;7.13;1.75;;;22.90;48.30;;;;;;4887691;29;20044;-76
2022/05/22 12:34:02;;;;;;;5.28;1.45;;;22.90;47.60;;;;;;4903137;29;20048;-74
2022/05/22 12:36:30;;;;;;;6.13;1.33;;;22.60;47.20;;;;;;4887854;29;20497;-75
2022/05/22 12:39:08;;;;;;;6.38;1.88;;;22.80;47.30;;;;;;4902879;29;20481;-74
2022/05/22 12:41:48;;;;;;;8.60;1.55;;;22.80;46.70;;;;;;4903330;29;20052;-76
2022/05/22 12:44:14;;;;;;;7.18;1.77;;;22.80;46.80;;;;;;4887457;29;20048;-75
2022/05/22 12:46:40;;;;;;;;;;;22.90;47.90;;;;;;4903738;29;20485;-75
2022/05/22 12:49:23;;;;;;;8.52;1.60;;;22.70;46.20;;;;;;4887691;29;19919;-76
2022/05/22 12:52:06;;;;;;;6.82;1.85;;;22.80;45.10;;;;;;4902852;29;20048;-76
2022/05/22 12:54:37;;;;;;;8.15;1.60;;;22.60;45.50;;;;;;4903001;29;20555;-74
2022/05/22 12:57:16;;;;;;;15.82;1.67;;;22.60;45.10;;;;;;4871920;29;20055;-74
2022/05/22 13:00:00;;;;;;;8.20;2.20;;;22.90;46.60;;;;;;4903236;29;20048;-76
2022/05/22 13:02:44;;;;;;;8.27;1.83;;;22.90;47.90;;;;;;4887309;29;20103;-75
2022/05/22 13:05:26;;;;;;;5.85;1.20;;;23.00;46.80;;;;;;4902990;29;20127;-74
2022/05/22 13:07:52;;;;;;;7.75;1.50;;;23.30;48.30;;;;;;4887218;29;20052;-76
2022/05/22 13:10:23;;;;;;;6.13;1.75;;;23.50;47.30;;;;;;4887160;29;20044;-75
2022/05/22 13:13:08;;;;;;;7.68;1.70;;;23.00;42.80;;;;;;4886916;29;20050;-74
2022/05/22 13:15:35;;;;;;;8.65;1.92;;;23.00;44.80;;;;;;4886359;29;20048;-75
2022/05/22 13:18:17;;;;;;;5.60;1.70;;;22.90;46.90;;;;;;4902256;29;20082;-75
2022/05/22 13:20:48;;;;;;;5.22;1.17;;;23.10;46.40;;;;;;4889293;29;20044;-74
2022/05/22 13:23:23;;;;;;;4.95;1.35;;;23.20;46.80;;;;;;4905348;29;20493;-74
2022/05/22 13:26:16;;;;;;;6.95;1.50;;;23.30;45.30;;;;;;4902148;29;20040;-76
2022/05/22 13:28:42;;;;;;;7.50;1.58;;;23.20;45.90;;;;;;4894876;29;20070;-75
2022/05/22 13:31:10;;;;;;;10.65;1.35;;;23.00;44.80;;;;;;4886461;29;20049;-76
2022/05/22 13:33:44;;;;;;;5.45;1.60;;;23.10;44.10;;;;;;4902314;29;20111;-74
2022/05/22 13:36:24;;;;;;;3.92;1.20;;;22.80;39.90;;;;;;4886645;29;20090;-74
2022/05/22 13:38:58;;;;;;;6.43;0.93;;;22.70;40.50;;;;;;4901911;29;20438;-76
2022/05/22 13:41:51;;;;;;;9.30;1.50;;;22.90;43.90;;;;;;4901979;29;20474;-74
2022/05/22 13:44:44;;;;;;;6.47;1.45;;;23.20;43.20;;;;;;4886406;29;20099;-74
2022/05/22 13:47:46;;;;;;;5.38;1.20;;;23.20;45.70;;;;;;4902175;29;20046;-77
2022/05/22 13:53:47;;;;;;;6.13;1.75;;;23.60;43.80;;;;;;4902019;29;20060;-74
2022/05/22 13:56:19;;;;;;;4.68;1.40;;;23.50;41.80;;;;;;4902060;29;20127;-75
2022/05/22 13:58:49;;;;;;;7.88;1.80;;;23.40;43.80;;;;;;4901826;29;20393;-74
2022/05/22 14:01:19;;;;;;;7.35;1.60;;;23.90;45.10;;;;;;4918525;29;20094;-74
2022/05/22 14:03:51;;;;;;;7.90;1.80;;;24.10;44.20;;;;;;4886126;29;20083;-76
2022/05/22 14:06:22;;;;;;;5.60;1.50;;;24.10;44.30;;;;;;4886089;29;20048;-75
2022/05/22 14:08:53;;;;;;;7.97;1.55;;;24.40;45.60;;;;;;4886184;29;20094;-77
2022/05/22 14:11:19;;;;;;;8.38;1.90;;;24.60;43.80;;;;;;4901798;29;20092;-79
2022/05/22 14:14:10;;;;;;;7.40;1.80;;;24.20;44.00;;;;;;4885906;29;20432;-79
2022/05/22 14:16:41;;;;;;;7.15;1.73;;;24.20;44.30;;;;;;4886098;29;20413;-77
2022/05/22 14:19:12;;;;;;;5.18;1.27;;;23.60;43.40;;;;;;4901241;29;20043;-78
2022/05/22 14:21:46;;;;;;;6.40;1.35;;;24.00;46.30;;;;;;4885716;29;20040;-78
2022/05/22 14:27:16;;;;;;;5.78;1.33;;;24.10;44.50;;;;;;4899915;29;20039;-81
2022/05/22 14:29:42;;;;;;;6.45;1.45;;;24.30;44.90;;;;;;4884531;29;20063;-78
2022/05/22 14:32:21;;;;;;;6.25;1.50;;;24.70;45.20;;;;;;4875090;29;20044;-78
2022/05/22 14:34:47;;;;;;;7.70;1.63;;;24.80;45.00;;;;;;4890215;29;20080;-74
2022/05/22 14:37:15;;;;;;;7.28;1.80;;;24.80;44.20;;;;;;4885358;29;20041;-73
2022/05/22 14:39:56;;;;;;;4.55;1.40;;;25.20;44.10;;;;;;4900503;29;20131;-72
2022/05/22 14:42:27;;;;;;;8.65;1.70;;;25.60;42.70;;;;;;4895962;29;20055;-71
2022/05/22 14:44:53;;;;;;;6.75;1.50;;;25.30;42.50;;;;;;4896890;29;20359;-71
2022/05/22 14:47:28;;;;;;;6.88;1.38;;;24.50;40.60;;;;;;4908693;29;20442;-74
2022/05/22 14:49:56;;;;;;;7.05;1.73;;;24.10;41.80;;;;;;4890609;29;20044;-72
2022/05/22 14:52:25;;;;;;;7.25;1.60;;;23.90;43.70;;;;;;4871184;29;20139;-72
2022/05/22 14:55:03;;;;;;;7.28;1.70;;;24.20;41.40;;;;;;4876738;29;20048;-73
2022/05/22 14:57:52;;;;;;;4.47;1.40;;;24.00;43.40;;;;;;4897241;29;20128;-73
2022/05/22 15:00:24;;;;;;;11.43;1.60;;;24.40;43.40;;;;;;4892296;29;20040;-72
2022/05/22 15:02:59;;;;;;;5.97;1.30;;;24.40;44.10;;;;;;4874649;29;20080;-74
2022/05/22 15:05:33;;;;;;;7.88;1.45;;;23.90;42.80;;;;;;4880905;29;20053;-72
2022/05/22 15:08:21;;;;;;;6.15;1.45;;;23.60;43.80;;;;;;4891186;29;20081;-73
2022/05/22 15:10:47;;;;;;;9.57;2.00;;;23.40;44.80;;;;;;4874123;29;20048;-74
2022/05/22 15:13:34;;;;;;;8.02;2.17;;;22.70;47.90;;;;;;4884952;29;20505;-74
2022/05/22 15:16:16;;;;;;;9.00;1.88;;;22.60;50.10;;;;;;4882419;29;20485;-72
2022/05/22 15:21:28;;;;;;;10.00;2.15;;;22.20;52.40;;;;;;4895329;29;20429;-72
2022/05/22 15:26:48;;;;;;;11.65;3.10;;;21.80;51.10;;;;;;4889850;29;20048;-75
2022/05/22 15:29:15;;;;;;;11.00;2.45;;;22.00;52.70;;;;;;4880453;29;20378;-77
2022/05/22 15:31:42;;;;;;;10.98;3.20;;;21.70;55.00;;;;;;4878221;29;20183;-77
2022/05/22 15:34:23;;;;;;;11.65;3.15;;;21.40;56.20;;;;;;4880664;29;20079;-76
2022/05/22 15:36:50;;;;;;;9.80;3.30;;;21.40;58.50;;;;;;4891004;29;20049;-76
2022/05/22 15:39:28;;;;;;;10.50;3.47;;;21.20;57.90;;;;;;4899750;29;20127;-75
2022/05/22 15:42:00;;;;;;;13.07;4.18;;;21.20;58.80;;;;;;4890964;29;20553;-77
2022/05/22 15:44:32;;;;;;;10.15;3.38;;;21.60;59.30;;;;;;4883907;29;20049;-74